Randolph, MA

5:58 AM EDT on July 05, 2015 (GMT -0400)
North Randolph | | Change Station
CLOSE
Current Station
Personal Weather Station
Location: Randolph, MA
Elevation: 225 ft
Nearby Weather Stations

Elev 225 ft 42.20 °N, 71.06 °W | Updated 8 minutes ago

Mostly Cloudy
Mostly Cloudy
58.0 °F
Feels Like 58.0 °F
N
3.0
Wind Variable Wind from NW
Gusts 3.0 mph

Today
High -- | Low -- °F
--% Chance of Precip.
Yesterday
High -- | Low -- °F
Precip. -- in
5:13 AM 8:23 PM
Waning Gibbous, 86% visible
Pressure 30.02 in
Visibility 0.2 miles
Clouds
Dew Point 56 °F
Humidity 94%
Rainfall 0.00 in
Snow Depth Not available.
UV Not available.
Pollen 1.90 out of 12
Air Quality Not available.
Flu Activity Not available.
METAR KOWD 050953Z AUTO 00000KT 1/4SM FG VV003 11/10 A3002 RMK AO2 SLP166 T01110100

More Conditions Fewer Conditions

Pressure 30.02 in
Visibility 0.2 miles
Clouds
Dew Point 56 °F
Humidity 94%
Rainfall 0.00 in
Snow Depth Not available.
UV Not available.
Pollen 1.90 out of 12
Air Quality Not available.
Flu Activity Not available.
METAR KOWD 050953Z AUTO 00000KT 1/4SM FG VV003 11/10 A3002 RMK AO2 SLP166 T01110100

More Conditions Fewer Conditions

10-Day Weather Forecast

×

Almanac

Astronomy

Jul. 05, 2015 Rise Set
Actual Time
Civil Twilight
Nautical Twilight
Astronomical Twilight
Moon
Length of Visible Light
Length of Day
Tomorrow will be .
, % of the Moon is Illuminated

Today's Extremes

State Highs State Lows

Community

WunderPhotos

Upload Photos

1,835,218 photos uploaded!

WunderBlogs® & News

Nearby

Air Quality

  Air Quality AQ Index Pollutant
Not available.

Snow Depth

Station Depth Elevation

Earthquake Activity

City Distance Mag. Time & Date
Minimum magnitude displayed is 2.5.

Coastal Water Temperatures

Place Temperature

Stations

Nearby Weather Stations

Station Location Temp. Windchill Dew Point Humidity Wind Precip. Elev Updated Type